Time;durP1;ratioP1;P1;durP2;ratioP2;P2;SDS_P1;SDS_P2;PMS_P1;PMS_P2;Temp;Humidity;BMP_temperature;BMP_pressure;BME280_temperature;BME280_humidity;BME280_pressure;Samples;Min_cycle;Max_cycle;Signal;HPM_P1;HPM_P2
2022/08/21 00:00:09;;;;;;;10.82;3.60;;;;;;;;;;5075019;28;20519;-75
2022/08/21 00:02:35;;;;;;;11.90;3.30;;;;;;;;;;5075673;28;20406;-76
2022/08/21 00:05:01;;;;;;;9.93;3.35;;;;;;;;;;5077532;28;20123;-76
2022/08/21 00:07:27;;;;;;;10.18;3.15;;;;;;;;;;5058265;28;20045;-74
2022/08/21 00:09:53;;;;;;;10.85;3.53;;;;;;;;;;5076409;28;20040;-75
2022/08/21 00:12:19;;;;;;;9.48;3.30;;;;;;;;;;5076856;28;20509;-75
2022/08/21 00:14:45;;;;;;;10.65;3.50;;;;;;;;;;5075206;28;20128;-75
2022/08/21 00:17:11;;;;;;;7.97;2.80;;;;;;;;;;5074132;28;20571;-75
2022/08/21 00:19:37;;;;;;;10.57;3.40;;;;;;;;;;5075812;28;20135;-76
2022/08/21 00:22:03;;;;;;;11.00;3.75;;;;;;;;;;5074048;28;20036;-76
2022/08/21 00:24:29;;;;;;;10.02;3.20;;;;;;;;;;5075588;28;20071;-75
2022/08/21 00:26:55;;;;;;;9.88;3.45;;;;;;;;;;5069896;28;20043;-76
2022/08/21 00:29:21;;;;;;;10.63;3.22;;;;;;;;;;5075584;28;20040;-77
2022/08/21 00:31:47;;;;;;;8.10;2.92;;;;;;;;;;5074460;28;20105;-76
2022/08/21 00:34:14;;;;;;;8.13;2.90;;;;;;;;;;5075880;28;20091;-76
2022/08/21 00:36:40;;;;;;;8.73;3.42;;;;;;;;;;5072668;28;20052;-76
2022/08/21 00:39:07;;;;;;;10.20;3.72;;;;;;;;;;5065002;28;20044;-76
2022/08/21 00:41:34;;;;;;;9.02;3.50;;;;;;;;;;5073342;28;20051;-76
2022/08/21 00:44:00;;;;;;;11.60;3.60;;;;;;;;;;5074800;28;20044;-76
2022/08/21 00:46:26;;;;;;;9.43;3.55;;;;;;;;;;5075204;28;20132;-77
2022/08/21 00:48:52;;;;;;;9.25;3.67;;;;;;;;;;5075137;28;20494;-76
2022/08/21 00:51:25;;;;;;;10.95;3.67;;;;;;;;;;5071033;28;20087;-77
2022/08/21 00:53:53;;;;;;;10.20;3.30;;;;;;;;;;5075730;28;20072;-76
2022/08/21 00:56:20;;;;;;;10.68;3.47;;;;;;;;;;5073991;28;20040;-77
2022/08/21 00:58:47;;;;;;;8.80;3.30;;;;;;;;;;5076180;28;20051;-77
2022/08/21 01:01:13;;;;;;;9.80;3.63;;;;;;;;;;5076220;28;20115;-76
2022/08/21 01:03:40;;;;;;;12.57;3.88;;;;;;;;;;5075588;28;20048;-76
2022/08/21 01:06:06;;;;;;;8.07;3.42;;;;;;;;;;5069364;28;20414;-76
2022/08/21 01:08:33;;;;;;;7.18;3.47;;;;;;;;;;5075907;28;20051;-77
2022/08/21 01:10:59;;;;;;;9.00;3.42;;;;;;;;;;5079760;28;20049;-76
2022/08/21 01:13:27;;;;;;;8.13;3.60;;;;;;;;;;5077745;28;20051;-75
2022/08/21 01:15:54;;;;;;;10.40;3.70;;;;;;;;;;5062486;28;20051;-76
2022/08/21 01:18:20;;;;;;;10.93;3.60;;;;;;;;;;5077926;28;20045;-76
2022/08/21 01:21:12;;;;;;;9.48;3.83;;;;;;;;;;5079850;28;20551;-76
2022/08/21 01:23:40;;;;;;;9.65;3.58;;;;;;;;;;5076024;28;20045;-76
2022/08/21 01:26:06;;;;;;;10.05;3.90;;;;;;;;;;5077546;28;20040;-75
2022/08/21 01:28:35;;;;;;;11.35;4.18;;;;;;;;;;5079775;28;20060;-77
2022/08/21 01:31:02;;;;;;;10.93;4.10;;;;;;;;;;5061936;28;20080;-75
2022/08/21 01:33:28;;;;;;;12.88;4.80;;;;;;;;;;5059796;28;20056;-76
2022/08/21 01:35:54;;;;;;;14.75;5.13;;;;;;;;;;5078074;28;20037;-76
2022/08/21 01:38:24;;;;;;;11.80;4.95;;;;;;;;;;5077929;28;20053;-76
2022/08/21 01:40:50;;;;;;;12.90;4.60;;;;;;;;;;5080690;28;20040;-76
2022/08/21 01:43:16;;;;;;;13.25;4.60;;;;;;;;;;5080096;28;20090;-76
2022/08/21 01:45:42;;;;;;;13.05;4.90;;;;;;;;;;5080103;28;20036;-76
2022/08/21 01:48:08;;;;;;;13.63;4.15;;;;;;;;;;5079790;28;20466;-76
2022/08/21 01:50:34;;;;;;;16.17;4.32;;;;;;;;;;5080684;28;20036;-76
2022/08/21 01:53:00;;;;;;;13.73;4.90;;;;;;;;;;5079231;28;20092;-75
2022/08/21 01:55:26;;;;;;;14.23;5.20;;;;;;;;;;5079963;28;20041;-76
2022/08/21 01:57:52;;;;;;;12.48;4.72;;;;;;;;;;5073003;28;20098;-75
2022/08/21 02:00:20;;;;;;;10.73;4.60;;;;;;;;;;5081376;28;20048;-75
2022/08/21 02:02:46;;;;;;;9.38;4.43;;;;;;;;;;5079015;28;20387;-76
2022/08/21 02:05:12;;;;;;;9.55;4.28;;;;;;;;;;5079091;28;20048;-76
2022/08/21 02:07:39;;;;;;;14.93;4.97;;;;;;;;;;5079341;28;20040;-76
2022/08/21 02:10:05;;;;;;;12.25;4.75;;;;;;;;;;5077339;28;20332;-76
2022/08/21 02:12:31;;;;;;;9.93;3.92;;;;;;;;;;5077454;28;20041;-76
2022/08/21 02:14:58;;;;;;;11.65;4.63;;;;;;;;;;5079408;28;20051;-77
2022/08/21 02:17:24;;;;;;;14.93;5.10;;;;;;;;;;5079616;28;20094;-76
2022/08/21 02:19:50;;;;;;;12.35;4.75;;;;;;;;;;5078233;28;20044;-76
2022/08/21 02:22:16;;;;;;;12.43;4.82;;;;;;;;;;5078812;28;20058;-75
2022/08/21 02:24:42;;;;;;;12.10;5.32;;;;;;;;;;5077396;28;20048;-77
2022/08/21 02:27:08;;;;;;;12.05;5.53;;;;;;;;;;5079500;28;20053;-76
2022/08/21 02:29:34;;;;;;;13.75;5.53;;;;;;;;;;5059612;28;20045;-76
2022/08/21 02:32:00;;;;;;;16.27;5.70;;;;;;;;;;5076262;28;20051;-75
2022/08/21 02:34:26;;;;;;;12.88;5.82;;;;;;;;;;5079232;28;20045;-75
2022/08/21 02:36:52;;;;;;;11.10;5.97;;;;;;;;;;5077774;28;20040;-77
2022/08/21 02:39:18;;;;;;;14.43;6.20;;;;;;;;;;5062491;28;20041;-76
2022/08/21 02:41:44;;;;;;;13.98;6.55;;;;;;;;;;5078384;28;20040;-75
2022/08/21 02:44:10;;;;;;;14.07;6.32;;;;;;;;;;5077630;28;20398;-75
2022/08/21 02:46:36;;;;;;;12.55;6.10;;;;;;;;;;5077918;28;20032;-76
2022/08/21 02:49:02;;;;;;;12.90;6.50;;;;;;;;;;5079017;28;20063;-76
2022/08/21 02:51:28;;;;;;;14.13;6.10;;;;;;;;;;5059341;28;20044;-76
2022/08/21 02:53:54;;;;;;;15.95;6.38;;;;;;;;;;5076210;28;20482;-75
2022/08/21 02:56:21;;;;;;;12.90;6.60;;;;;;;;;;5077188;28;20044;-75
2022/08/21 02:58:49;;;;;;;9.88;5.90;;;;;;;;;;5078007;28;20176;-77
2022/08/21 03:01:15;;;;;;;14.75;6.88;;;;;;;;;;5076929;28;20048;-75
2022/08/21 03:03:43;;;;;;;11.35;7.07;;;;;;;;;;5077572;28;20041;-76
2022/08/21 03:06:09;;;;;;;14.70;7.85;;;;;;;;;;5078067;28;20041;-76
2022/08/21 03:08:36;;;;;;;14.82;7.63;;;;;;;;;;5079150;28;20048;-76
2022/08/21 03:11:02;;;;;;;15.68;7.90;;;;;;;;;;5056845;28;20048;-76
2022/08/21 03:13:28;;;;;;;14.65;8.40;;;;;;;;;;5065701;28;20061;-75
2022/08/21 03:15:54;;;;;;;15.20;8.30;;;;;;;;;;5077136;28;20040;-76
2022/08/21 03:18:20;;;;;;;16.88;8.90;;;;;;;;;;5076202;28;20449;-77
2022/08/21 03:20:47;;;;;;;15.13;8.80;;;;;;;;;;5078542;28;20036;-76
2022/08/21 03:23:13;;;;;;;12.38;8.82;;;;;;;;;;5074606;28;20041;-76
2022/08/21 03:25:39;;;;;;;14.35;8.38;;;;;;;;;;5076347;28;20075;-75
2022/08/21 03:28:07;;;;;;;14.60;9.20;;;;;;;;;;5076736;28;20040;-77
2022/08/21 03:30:33;;;;;;;15.13;8.43;;;;;;;;;;5074334;28;20563;-77
2022/08/21 03:32:59;;;;;;;17.00;9.85;;;;;;;;;;5075403;28;20036;-76
2022/08/21 03:35:26;;;;;;;14.68;9.50;;;;;;;;;;5059048;28;20044;-76
2022/08/21 03:37:53;;;;;;;15.27;9.52;;;;;;;;;;5059481;28;20053;-76
2022/08/21 03:40:20;;;;;;;14.15;8.80;;;;;;;;;;5075900;28;20056;-76
2022/08/21 03:42:46;;;;;;;13.88;9.65;;;;;;;;;;5075181;28;20052;-76
2022/08/21 03:45:13;;;;;;;16.92;9.77;;;;;;;;;;5074497;28;20051;-76
2022/08/21 03:47:40;;;;;;;17.65;10.50;;;;;;;;;;5076325;28;20047;-75
2022/08/21 03:50:07;;;;;;;12.82;9.02;;;;;;;;;;5076992;28;20054;-75
2022/08/21 03:52:33;;;;;;;16.88;9.60;;;;;;;;;;5068526;28;20041;-76
2022/08/21 03:54:59;;;;;;;16.13;9.52;;;;;;;;;;5073373;28;20128;-76
2022/08/21 03:57:25;;;;;;;13.68;9.35;;;;;;;;;;5056934;28;20132;-75
2022/08/21 03:59:51;;;;;;;16.15;9.80;;;;;;;;;;5074966;28;20040;-76
2022/08/21 04:02:18;;;;;;;14.20;9.18;;;;;;;;;;5074235;28;20036;-76
2022/08/21 04:04:44;;;;;;;12.20;9.27;;;;;;;;;;5076198;28;20399;-76
2022/08/21 04:07:10;;;;;;;13.05;9.43;;;;;;;;;;5075134;28;20495;-75
2022/08/21 04:09:36;;;;;;;15.70;9.27;;;;;;;;;;5076290;28;20086;-76
2022/08/21 04:12:03;;;;;;;14.50;8.90;;;;;;;;;;5074318;28;20054;-75
2022/08/21 04:14:30;;;;;;;12.40;10.38;;;;;;;;;;5075714;28;20048;-76
2022/08/21 04:16:56;;;;;;;17.88;9.93;;;;;;;;;;5072979;28;20048;-75
2022/08/21 04:19:23;;;;;;;17.90;10.02;;;;;;;;;;5074772;28;20074;-76
2022/08/21 04:21:49;;;;;;;18.05;10.90;;;;;;;;;;5076310;28;20040;-78
2022/08/21 04:24:15;;;;;;;13.18;10.38;;;;;;;;;;5070563;28;20074;-76
2022/08/21 04:26:41;;;;;;;16.98;11.20;;;;;;;;;;5071743;28;20130;-75
2022/08/21 04:29:07;;;;;;;15.65;10.35;;;;;;;;;;5071517;28;20044;-76
2022/08/21 04:31:34;;;;;;;14.88;10.40;;;;;;;;;;5070299;28;20037;-75
2022/08/21 04:34:00;;;;;;;15.20;10.27;;;;;;;;;;5073357;28;20547;-76
2022/08/21 04:36:26;;;;;;;14.02;9.95;;;;;;;;;;5069883;28;20093;-76
2022/08/21 04:38:52;;;;;;;15.75;10.48;;;;;;;;;;5074032;28;20053;-76
2022/08/21 04:41:19;;;;;;;12.68;10.20;;;;;;;;;;5075520;28;20506;-76
2022/08/21 04:43:45;;;;;;;14.88;10.32;;;;;;;;;;5074185;28;20546;-75
2022/08/21 04:46:11;;;;;;;13.65;10.50;;;;;;;;;;5079504;28;20044;-76
2022/08/21 04:48:37;;;;;;;13.57;10.10;;;;;;;;;;5079290;28;20538;-76
2022/08/21 04:51:07;;;;;;;13.02;9.80;;;;;;;;;;5079568;28;20124;-75
2022/08/21 04:53:39;;;;;;;14.10;10.02;;;;;;;;;;5076895;28;20041;-76
2022/08/21 04:56:08;;;;;;;14.50;10.02;;;;;;;;;;5063134;28;20052;-75
2022/08/21 04:58:35;;;;;;;16.02;10.48;;;;;;;;;;5079600;28;20068;-77
2022/08/21 05:01:01;;;;;;;15.95;9.93;;;;;;;;;;5077045;28;20482;-76
2022/08/21 05:03:28;;;;;;;13.95;10.00;;;;;;;;;;5077487;28;20497;-76
2022/08/21 05:05:54;;;;;;;13.70;10.55;;;;;;;;;;5080097;28;20494;-76
2022/08/21 05:08:23;;;;;;;17.90;10.40;;;;;;;;;;5078428;28;20045;-76
2022/08/21 05:10:49;;;;;;;15.35;9.55;;;;;;;;;;5076614;28;20048;-75
2022/08/21 05:13:15;;;;;;;12.88;10.35;;;;;;;;;;5078733;28;20048;-76
2022/08/21 05:15:42;;;;;;;17.40;10.43;;;;;;;;;;5077945;28;20041;-76
2022/08/21 05:18:08;;;;;;;13.40;10.25;;;;;;;;;;5076316;28;20049;-76
2022/08/21 05:20:34;;;;;;;12.68;10.07;;;;;;;;;;5078471;28;20091;-76
2022/08/21 05:23:00;;;;;;;14.15;9.98;;;;;;;;;;5078848;28;20045;-76
2022/08/21 05:25:27;;;;;;;13.73;9.55;;;;;;;;;;5075816;28;20043;-76
2022/08/21 05:27:53;;;;;;;13.25;9.68;;;;;;;;;;5078284;28;20079;-75
2022/08/21 05:30:19;;;;;;;13.63;9.65;;;;;;;;;;5077725;28;20041;-76
2022/08/21 05:32:45;;;;;;;14.43;9.73;;;;;;;;;;5077553;28;20494;-76
2022/08/21 05:35:11;;;;;;;15.23;8.88;;;;;;;;;;5079945;28;20059;-76
2022/08/21 05:37:37;;;;;;;11.40;8.02;;;;;;;;;;5079417;28;20048;-75
2022/08/21 05:40:05;;;;;;;11.13;8.10;;;;;;;;;;5079687;28;20054;-77
2022/08/21 05:42:31;;;;;;;12.43;7.60;;;;;;;;;;5072743;28;20052;-76
2022/08/21 05:44:59;;;;;;;12.73;7.57;;;;;;;;;;5078713;28;20462;-77
2022/08/21 05:47:26;;;;;;;10.77;6.53;;;;;;;;;;5075140;28;20609;-76
2022/08/21 05:49:52;;;;;;;12.43;6.63;;;;;;;;;;5052610;28;20064;-78
2022/08/21 05:52:21;;;;;;;10.68;6.18;;;;;;;;;;5076572;28;20043;-77
2022/08/21 05:54:47;;;;;;;10.45;5.22;;;;;;;;;;5075443;28;20037;-77
2022/08/21 05:57:13;;;;;;;10.32;5.80;;;;;;;;;;5074542;28;20047;-75
2022/08/21 05:59:39;;;;;;;9.95;5.32;;;;;;;;;;5078577;28;20497;-76
2022/08/21 06:02:07;;;;;;;10.02;5.10;;;;;;;;;;5075562;28;20045;-76
2022/08/21 06:04:36;;;;;;;10.73;4.82;;;;;;;;;;5077064;28;20052;-76
2022/08/21 06:07:02;;;;;;;10.52;4.95;;;;;;;;;;5061115;28;20068;-76
2022/08/21 06:09:28;;;;;;;8.88;4.85;;;;;;;;;;5077999;28;20041;-76
2022/08/21 06:11:54;;;;;;;9.05;4.80;;;;;;;;;;5075396;28;20409;-76
2022/08/21 06:14:20;;;;;;;8.93;4.15;;;;;;;;;;5070350;28;20052;-77
2022/08/21 06:16:46;;;;;;;9.75;4.25;;;;;;;;;;5076726;28;20090;-77
2022/08/21 06:19:12;;;;;;;12.10;4.63;;;;;;;;;;5076177;28;20064;-77
2022/08/21 06:21:38;;;;;;;11.25;4.20;;;;;;;;;;5077839;28;20102;-78
2022/08/21 06:24:05;;;;;;;9.18;4.32;;;;;;;;;;5071932;28;20044;-76
2022/08/21 06:26:31;;;;;;;9.82;4.32;;;;;;;;;;5057002;28;20057;-77
2022/08/21 06:28:58;;;;;;;8.93;4.55;;;;;;;;;;5067958;28;20036;-77
2022/08/21 06:31:25;;;;;;;8.95;4.22;;;;;;;;;;5067692;28;20490;-79
2022/08/21 06:33:51;;;;;;;9.40;4.50;;;;;;;;;;5049881;28;20051;-78
2022/08/21 06:36:17;;;;;;;7.95;3.83;;;;;;;;;;5081903;28;20035;-78
2022/08/21 06:38:43;;;;;;;9.70;3.80;;;;;;;;;;5076690;28;20048;-77
2022/08/21 06:41:09;;;;;;;9.95;3.75;;;;;;;;;;5064723;28;20524;-78
2022/08/21 06:43:35;;;;;;;9.35;4.20;;;;;;;;;;5077661;28;20049;-77
2022/08/21 06:46:01;;;;;;;10.25;4.40;;;;;;;;;;5067717;28;20040;-78
2022/08/21 06:48:29;;;;;;;10.00;4.28;;;;;;;;;;5075315;28;20036;-78
2022/08/21 06:50:55;;;;;;;10.38;3.55;;;;;;;;;;5074127;28;20469;-78
2022/08/21 06:53:22;;;;;;;9.27;3.65;;;;;;;;;;5077915;28;20048;-77
2022/08/21 06:55:48;;;;;;;8.45;3.80;;;;;;;;;;5060584;28;20045;-77
2022/08/21 06:58:14;;;;;;;9.30;3.90;;;;;;;;;;5080143;28;20048;-77
2022/08/21 07:00:41;;;;;;;11.50;4.03;;;;;;;;;;5081405;28;20102;-77
2022/08/21 07:03:07;;;;;;;9.35;3.67;;;;;;;;;;5080545;28;20051;-78
2022/08/21 07:05:33;;;;;;;10.05;3.95;;;;;;;;;;5078556;28;20049;-78
2022/08/21 07:07:59;;;;;;;9.80;3.75;;;;;;;;;;5062473;28;20377;-77
2022/08/21 07:10:27;;;;;;;9.60;3.60;;;;;;;;;;5079654;28;20060;-79
2022/08/21 07:12:54;;;;;;;11.10;4.25;;;;;;;;;;5078361;28;20045;-78
2022/08/21 07:15:20;;;;;;;11.38;3.92;;;;;;;;;;5078959;28;20087;-77
2022/08/21 07:17:46;;;;;;;9.15;3.45;;;;;;;;;;5079908;28;20043;-78
2022/08/21 07:20:12;;;;;;;9.88;3.35;;;;;;;;;;5078060;28;20040;-78
2022/08/21 07:22:39;;;;;;;9.48;3.47;;;;;;;;;;5078392;28;20494;-78
2022/08/21 07:25:06;;;;;;;8.07;3.33;;;;;;;;;;5067021;28;20067;-79
2022/08/21 07:27:32;;;;;;;10.50;3.42;;;;;;;;;;5078279;28;20101;-77
2022/08/21 07:29:58;;;;;;;8.30;3.15;;;;;;;;;;5079700;28;20056;-77
2022/08/21 07:32:24;;;;;;;8.77;3.00;;;;;;;;;;5079750;28;20048;-77
2022/08/21 07:34:50;;;;;;;10.70;3.05;;;;;;;;;;5078354;28;20032;-77
2022/08/21 07:37:17;;;;;;;11.30;3.30;;;;;;;;;;5058816;28;20059;-78
2022/08/21 07:39:43;;;;;;;10.02;2.80;;;;;;;;;;5078184;28;20387;-78
2022/08/21 07:42:10;;;;;;;9.63;2.70;;;;;;;;;;5077452;28;20041;-78
2022/08/21 07:44:36;;;;;;;10.45;3.00;;;;;;;;;;5060205;28;20052;-78
2022/08/21 07:47:02;;;;;;;8.82;2.78;;;;;;;;;;5078442;28;20479;-78
2022/08/21 07:49:28;;;;;;;8.98;2.60;;;;;;;;;;5077187;28;20044;-79
2022/08/21 07:51:54;;;;;;;9.13;2.85;;;;;;;;;;5078084;28;20105;-79
2022/08/21 07:54:20;;;;;;;10.43;2.58;;;;;;;;;;5059638;28;20056;-79
2022/08/21 07:56:46;;;;;;;8.32;2.25;;;;;;;;;;5076706;28;20040;-79
2022/08/21 07:59:12;;;;;;;10.50;2.53;;;;;;;;;;5077406;28;20044;-78
2022/08/21 08:01:38;;;;;;;9.90;2.50;;;;;;;;;;5078127;28;20040;-79
2022/08/21 08:04:04;;;;;;;11.88;2.90;;;;;;;;;;5077889;28;20574;-79
2022/08/21 08:06:30;;;;;;;10.48;2.38;;;;;;;;;;5076739;28;20052;-80
2022/08/21 08:08:56;;;;;;;10.18;2.28;;;;;;;;;;5078092;28;20063;-79
2022/08/21 08:11:22;;;;;;;9.65;2.38;;;;;;;;;;5076052;28;20120;-79
2022/08/21 08:13:50;;;;;;;11.95;2.50;;;;;;;;;;5077580;28;20414;-79
2022/08/21 08:16:17;;;;;;;10.30;2.63;;;;;;;;;;5076830;28;20056;-79
2022/08/21 08:18:44;;;;;;;10.05;2.35;;;;;;;;;;5076197;28;20506;-79
2022/08/21 08:21:10;;;;;;;10.43;2.25;;;;;;;;;;5077771;28;20118;-80
2022/08/21 08:23:36;;;;;;;9.70;2.35;;;;;;;;;;5071524;28;20531;-79
2022/08/21 08:26:02;;;;;;;8.18;2.53;;;;;;;;;;5068463;28;20391;-81
2022/08/21 08:28:30;;;;;;;9.23;2.50;;;;;;;;;;5074554;28;20502;-79
2022/08/21 08:30:56;;;;;;;9.55;2.35;;;;;;;;;;5074400;28;20411;-80
2022/08/21 08:33:22;;;;;;;8.82;2.40;;;;;;;;;;5077182;28;20067;-80
2022/08/21 08:35:49;;;;;;;8.25;2.13;;;;;;;;;;5075599;28;20505;-79
2022/08/21 08:38:18;;;;;;;13.57;2.85;;;;;;;;;;5041818;28;20494;-80
2022/08/21 08:40:51;;;;;;;8.48;2.70;;;;;;;;;;5074682;28;20133;-79
2022/08/21 08:43:17;;;;;;;11.65;3.08;;;;;;;;;;5077047;28;20128;-79
2022/08/21 08:45:47;;;;;;;10.18;2.60;;;;;;;;;;5077144;28;20044;-81
2022/08/21 08:48:15;;;;;;;10.63;2.80;;;;;;;;;;5076364;28;20070;-80
2022/08/21 08:50:44;;;;;;;9.95;2.70;;;;;;;;;;5075922;28;20414;-80
2022/08/21 08:53:20;;;;;;;9.65;2.40;;;;;;;;;;5068510;28;20056;-79
2022/08/21 08:55:46;;;;;;;10.27;2.72;;;;;;;;;;5075922;28;20044;-79
2022/08/21 08:58:17;;;;;;;10.18;2.85;;;;;;;;;;5057228;28;20074;-77
2022/08/21 09:00:43;;;;;;;9.75;2.67;;;;;;;;;;5075208;28;20040;-76
2022/08/21 09:03:10;;;;;;;7.97;2.60;;;;;;;;;;5069046;28;20044;-78
2022/08/21 09:05:46;;;;;;;8.70;2.60;;;;;;;;;;5069278;28;20525;-78
2022/08/21 09:08:25;;;;;;;10.18;2.72;;;;;;;;;;5071278;28;20037;-77
2022/08/21 09:11:01;;;;;;;10.05;2.78;;;;;;;;;;5066632;28;20110;-77
2022/08/21 09:13:46;;;;;;;10.43;2.70;;;;;;;;;;5073433;28;20449;-76
2022/08/21 09:16:15;;;;;;;10.02;3.00;;;;;;;;;;5076633;28;20041;-77
2022/08/21 09:19:00;;;;;;;9.48;2.90;;;;;;;;;;5060879;28;20053;-76
2022/08/21 09:21:49;;;;;;;10.98;2.60;;;;;;;;;;5067411;28;20104;-78
2022/08/21 09:24:18;;;;;;;9.35;2.25;;;;;;;;;;5079590;28;20115;-76
2022/08/21 09:26:49;;;;;;;6.68;2.00;;;;;;;;;;5077059;28;20071;-78
2022/08/21 09:29:18;;;;;;;10.57;2.40;;;;;;;;;;5080466;28;20040;-77
2022/08/21 09:31:44;;;;;;;9.35;2.60;;;;;;;;;;5080941;28;20051;-78
2022/08/21 09:34:13;;;;;;;9.05;2.60;;;;;;;;;;5081313;28;20402;-77
2022/08/21 09:36:42;;;;;;;12.73;2.65;;;;;;;;;;5081824;28;20439;-79
2022/08/21 09:39:09;;;;;;;9.68;2.28;;;;;;;;;;5081482;28;20086;-80
2022/08/21 09:41:36;;;;;;;8.82;2.05;;;;;;;;;;5073455;28;20140;-78
2022/08/21 09:44:04;;;;;;;7.00;1.90;;;;;;;;;;5075977;28;20115;-79
2022/08/21 09:46:30;;;;;;;6.47;1.58;;;;;;;;;;5071529;28;20082;-77
2022/08/21 09:48:58;;;;;;;8.73;2.17;;;;;;;;;;5079769;28;20070;-78
2022/08/21 09:51:26;;;;;;;9.88;2.67;;;;;;;;;;5073715;28;20072;-79
2022/08/21 09:53:57;;;;;;;11.48;2.33;;;;;;;;;;5074058;28;20040;-79
2022/08/21 09:59:19;;;;;;;8.32;2.25;;;;;;;;;;5079721;28;19927;-79
2022/08/21 10:01:47;;;;;;;10.43;2.50;;;;;;;;;;5078359;28;20406;-80
2022/08/21 10:04:13;;;;;;;9.32;2.40;;;;;;;;;;5078210;28;20049;-80
2022/08/21 10:06:40;;;;;;;8.65;2.30;;;;;;;;;;5079969;28;20037;-80
2022/08/21 10:09:10;;;;;;;8.38;2.55;;;;;;;;;;5079776;28;20044;-80
2022/08/21 10:11:36;;;;;;;11.45;2.70;;;;;;;;;;5075874;28;20112;-79
2022/08/21 10:14:11;;;;;;;10.27;2.33;;;;;;;;;;5074738;28;20140;-80
2022/08/21 10:16:51;;;;;;;9.98;2.13;;;;;;;;;;5075388;28;20494;-80
2022/08/21 10:19:25;;;;;;;6.90;2.03;;;;;;;;;;5080179;28;20040;-80
2022/08/21 10:21:57;;;;;;;9.27;2.47;;;;;;;;;;5076554;28;20538;-77
2022/08/21 10:24:31;;;;;;;8.20;2.15;;;;;;;;;;5078245;28;20493;-79
2022/08/21 10:27:16;;;;;;;10.40;2.28;;;;;;;;;;5078177;28;20059;-78
2022/08/21 10:29:43;;;;;;;8.50;2.00;;;;;;;;;;5062542;28;20040;-78
2022/08/21 10:32:18;;;;;;;8.85;2.15;;;;;;;;;;5077372;28;20094;-78
2022/08/21 10:35:02;;;;;;;8.50;1.95;;;;;;;;;;5077923;28;20387;-78
2022/08/21 10:37:28;;;;;;;7.32;1.90;;;;;;;;;;5077304;28;20380;-77
2022/08/21 10:40:00;;;;;;;8.93;2.22;;;;;;;;;;5059839;28;20079;-78
2022/08/21 10:42:40;;;;;;;9.73;2.60;;;;;;;;;;5077533;28;20072;-79
2022/08/21 10:45:12;;;;;;;9.98;2.15;;;;;;;;;;5078329;28;20044;-78
2022/08/21 10:47:38;;;;;;;8.57;2.40;;;;;;;;;;5061477;28;20131;-78
2022/08/21 10:50:10;;;;;;;11.88;2.55;;;;;;;;;;5068577;28;20053;-78
2022/08/21 10:52:55;;;;;;;8.45;2.15;;;;;;;;;;5058199;28;20486;-78
2022/08/21 10:55:23;;;;;;;7.28;1.90;;;;;;;;;;5078193;28;20495;-77
2022/08/21 10:57:59;;;;;;;6.53;1.77;;;;;;;;;;5078056;28;20041;-78
2022/08/21 11:00:34;;;;;;;7.45;1.45;;;;;;;;;;5079134;28;20048;-78
2022/08/21 11:03:16;;;;;;;10.35;2.20;;;;;;;;;;5079066;28;20076;-77
2022/08/21 11:05:42;;;;;;;8.15;1.80;;;;;;;;;;5069679;28;20040;-79
2022/08/21 11:08:26;;;;;;;8.00;1.90;;;;;;;;;;5079172;28;20048;-78
2022/08/21 11:11:05;;;;;;;7.55;1.75;;;;;;;;;;5078270;28;20049;-79
2022/08/21 11:13:40;;;;;;;8.57;1.90;;;;;;;;;;5077100;28;20044;-80
2022/08/21 11:16:06;;;;;;;5.95;1.55;;;;;;;;;;5079757;28;20044;-79
2022/08/21 11:18:34;;;;;;;7.22;1.90;;;;;;;;;;5080184;28;20048;-79
2022/08/21 11:21:00;;;;;;;7.72;1.63;;;;;;;;;;5062915;28;20040;-80
2022/08/21 11:23:30;;;;;;;6.78;1.73;;;;;;;;;;5077905;28;20056;-80
2022/08/21 11:26:01;;;;;;;7.88;1.58;;;;;;;;;;5076496;28;20127;-79
2022/08/21 11:28:31;;;;;;;8.60;2.03;;;;;;;;;;5077900;28;20041;-80
2022/08/21 11:31:04;;;;;;;8.80;1.92;;;;;;;;;;5078672;28;20051;-80
2022/08/21 11:33:57;;;;;;;10.00;2.00;;;;;;;;;;5079036;28;20055;-81
2022/08/21 11:36:27;;;;;;;8.75;1.80;;;;;;;;;;5072285;28;20056;-79
2022/08/21 11:39:17;;;;;;;6.53;1.40;;;;;;;;;;5075642;28;20048;-82
2022/08/21 11:42:06;;;;;;;7.05;1.67;;;;;;;;;;5061432;28;20151;-82
2022/08/21 11:44:46;;;;;;;7.40;1.60;;;;;;;;;;5051699;28;20056;-82
2022/08/21 11:47:15;;;;;;;6.88;1.58;;;;;;;;;;5072397;28;20048;-80
2022/08/21 11:49:41;;;;;;;7.07;1.48;;;;;;;;;;5075831;28;20156;-80
2022/08/21 11:52:39;;;;;;;8.80;1.58;;;;;;;;;;5072240;28;20188;-80
2022/08/21 11:55:12;;;;;;;6.35;1.60;;;;;;;;;;5035549;28;20061;-80
2022/08/21 11:57:52;;;;;;;6.75;1.67;;;;;;;;;;5069724;28;20045;-80
2022/08/21 12:00:26;;;;;;;7.88;1.52;;;;;;;;;;5076128;28;20490;-80
2022/08/21 12:02:55;;;;;;;6.97;1.55;;;;;;;;;;5056842;28;20048;-81
2022/08/21 12:05:30;;;;;;;7.30;1.63;;;;;;;;;;5075934;28;20383;-80
2022/08/21 12:08:10;;;;;;;6.95;1.65;;;;;;;;;;5078264;28;20052;-81
2022/08/21 12:10:39;;;;;;;7.70;1.42;;;;;;;;;;5060851;28;20053;-79
2022/08/21 12:13:11;;;;;;;8.32;1.77;;;;;;;;;;5059928;28;20054;-81
2022/08/21 12:15:38;;;;;;;7.93;1.70;;;;;;;;;;5076240;28;20068;-79
2022/08/21 12:18:06;;;;;;;7.93;1.80;;;;;;;;;;5075214;28;20079;-80
2022/08/21 12:20:32;;;;;;;5.18;1.50;;;;;;;;;;5065211;28;20044;-79
2022/08/21 12:23:11;;;;;;;7.03;1.50;;;;;;;;;;5077127;28;20403;-78
2022/08/21 12:25:42;;;;;;;9.65;1.63;;;;;;;;;;5076087;28;20048;-78
2022/08/21 12:28:14;;;;;;;7.30;2.00;;;;;;;;;;5056382;28;20059;-79
2022/08/21 12:30:43;;;;;;;7.60;1.50;;;;;;;;;;5071336;28;20040;-80
2022/08/21 12:33:20;;;;;;;5.50;1.58;;;;;;;;;;5054914;28;20044;-80
2022/08/21 12:35:49;;;;;;;7.78;1.75;;;;;;;;;;5076371;28;20119;-80
2022/08/21 12:38:18;;;;;;;6.30;1.50;;;;;;;;;;5075921;28;20109;-82
2022/08/21 12:40:47;;;;;;;6.55;1.77;;;;;;;;;;5077035;28;20048;-82
2022/08/21 12:43:16;;;;;;;7.87;1.57;;;;;;;;;;5055852;28;20483;-80
2022/08/21 12:45:44;;;;;;;5.45;1.30;;;;;;;;;;5074985;28;20051;-79
2022/08/21 12:48:23;;;;;;;8.52;1.88;;;;;;;;;;5066805;28;20491;-80
2022/08/21 12:50:52;;;;;;;7.65;1.75;;;;;;;;;;5074643;28;20045;-80
2022/08/21 12:53:24;;;;;;;6.63;1.40;;;;;;;;;;5055475;28;21359;-78
2022/08/21 12:55:50;;;;;;;6.97;1.67;;;;;;;;;;5074447;28;20051;-80
2022/08/21 12:58:23;;;;;;;9.55;2.17;;;;;;;;;;5076453;28;20045;-78
2022/08/21 13:00:56;;;;;;;9.57;2.08;;;;;;;;;;5076342;28;20053;-80
2022/08/21 13:03:22;;;;;;;8.07;1.98;;;;;;;;;;5055640;28;20563;-80
2022/08/21 13:05:51;;;;;;;8.30;2.00;;;;;;;;;;5060701;28;20048;-80
2022/08/21 13:08:18;;;;;;;8.07;1.90;;;;;;;;;;5072824;28;20423;-80
2022/08/21 13:10:46;;;;;;;7.80;1.75;;;;;;;;;;5080449;28;20060;-79
2022/08/21 13:13:24;;;;;;;8.57;1.73;;;;;;;;;;5078455;28;20078;-80
2022/08/21 13:15:50;;;;;;;7.85;2.00;;;;;;;;;;5079110;28;20047;-80
2022/08/21 13:18:23;;;;;;;6.75;1.83;;;;;;;;;;5064912;28;20043;-80
2022/08/21 13:20:49;;;;;;;9.55;2.17;;;;;;;;;;5053850;28;20044;-80
2022/08/21 13:23:28;;;;;;;6.82;1.90;;;;;;;;;;5067824;28;20124;-80
2022/08/21 13:25:55;;;;;;;7.50;1.80;;;;;;;;;;5069915;28;20051;-81
2022/08/21 13:28:21;;;;;;;8.38;1.70;;;;;;;;;;5070139;28;20067;-80
2022/08/21 13:30:52;;;;;;;7.93;1.85;;;;;;;;;;5071794;28;20048;-80
2022/08/21 13:33:20;;;;;;;8.90;2.13;;;;;;;;;;5066583;28;20072;-81
2022/08/21 13:35:48;;;;;;;8.30;1.70;;;;;;;;;;5073336;28;20045;-79
2022/08/21 13:38:14;;;;;;;8.02;1.95;;;;;;;;;;5073348;28;20563;-79
2022/08/21 13:40:46;;;;;;;9.13;1.88;;;;;;;;;;5070675;28;20048;-79
2022/08/21 13:43:14;;;;;;;6.68;1.92;;;;;;;;;;5069964;28;20051;-80
2022/08/21 13:45:43;;;;;;;13.63;2.35;;;;;;;;;;5048551;28;20164;-79
2022/08/21 13:48:10;;;;;;;7.95;1.98;;;;;;;;;;5067712;28;20040;-78
2022/08/21 13:50:38;;;;;;;10.70;2.00;;;;;;;;;;5070308;28;20059;-79
2022/08/21 13:53:09;;;;;;;9.07;2.05;;;;;;;;;;5066227;28;20048;-80
2022/08/21 13:55:40;;;;;;;9.20;2.30;;;;;;;;;;5068422;28;20045;-79
2022/08/21 13:58:06;;;;;;;8.95;2.10;;;;;;;;;;5071157;28;20045;-79
2022/08/21 14:00:35;;;;;;;8.48;2.10;;;;;;;;;;5073405;28;20055;-80
2022/08/21 14:03:05;;;;;;;10.95;2.80;;;;;;;;;;5071886;28;20045;-79
2022/08/21 14:05:32;;;;;;;9.83;2.10;;;;;;;;;;5054288;28;20063;-79
2022/08/21 14:08:03;;;;;;;13.43;2.50;;;;;;;;;;5078494;28;20075;-79
2022/08/21 14:10:30;;;;;;;9.15;2.10;;;;;;;;;;5032107;28;20044;-80
2022/08/21 14:13:01;;;;;;;8.27;2.10;;;;;;;;;;5064945;28;20049;-81
2022/08/21 14:15:29;;;;;;;7.15;2.20;;;;;;;;;;5070575;28;20044;-81
2022/08/21 14:17:56;;;;;;;8.77;2.22;;;;;;;;;;5048610;28;20070;-81
2022/08/21 14:20:33;;;;;;;10.18;2.60;;;;;;;;;;5047036;28;20398;-80
2022/08/21 14:22:59;;;;;;;12.73;2.72;;;;;;;;;;5065628;28;20045;-80
2022/08/21 14:25:25;;;;;;;9.73;2.33;;;;;;;;;;5063006;28;20486;-79
2022/08/21 14:27:54;;;;;;;9.82;2.47;;;;;;;;;;5069215;28;20445;-80
2022/08/21 14:30:22;;;;;;;9.90;2.35;;;;;;;;;;5063243;28;20053;-80
2022/08/21 14:32:48;;;;;;;11.68;2.20;;;;;;;;;;5046192;28;20114;-80
2022/08/21 14:35:17;;;;;;;12.60;2.30;;;;;;;;;;5065542;28;20033;-79
2022/08/21 14:37:43;;;;;;;10.85;2.47;;;;;;;;;;5064692;28;20116;-80
2022/08/21 14:40:10;;;;;;;8.93;2.10;;;;;;;;;;5063348;28;20048;-79
2022/08/21 14:42:37;;;;;;;8.85;2.38;;;;;;;;;;5063499;28;20124;-80
2022/08/21 14:45:08;;;;;;;10.05;2.58;;;;;;;;;;5046421;28;20055;-79